sensor_id;sensor_type;location;lat;lon;timestamp;P1;durP1;ratioP1;P2;durP2;ratioP2
5898;SDS011;2975;50.956;6.962;2024-02-28T00:00:00;56.13;;;24.93;;
5898;SDS011;2975;50.956;6.962;2024-02-28T00:34:18;64.43;;;25.10;;
5898;SDS011;2975;50.956;6.962;2024-02-28T00:36:44;65.97;;;27.33;;
5898;SDS011;2975;50.956;6.962;2024-02-28T00:39:10;64.50;;;26.53;;
5898;SDS011;2975;50.956;6.962;2024-02-28T00:41:37;65.63;;;26.40;;
5898;SDS011;2975;50.956;6.962;2024-02-28T00:44:03;63.67;;;27.90;;
5898;SDS011;2975;50.956;6.962;2024-02-28T00:46:29;63.53;;;26.77;;
5898;SDS011;2975;50.956;6.962;2024-02-28T00:48:55;57.23;;;24.67;;
5898;SDS011;2975;50.956;6.962;2024-02-28T00:51:21;63.07;;;25.20;;
5898;SDS011;2975;50.956;6.962;2024-02-28T00:53:47;60.10;;;25.97;;
5898;SDS011;2975;50.956;6.962;2024-02-28T00:56:13;56.00;;;25.30;;
5898;SDS011;2975;50.956;6.962;2024-02-28T00:58:39;48.53;;;22.80;;
5898;SDS011;2975;50.956;6.962;2024-02-28T01:01:05;55.70;;;25.43;;
5898;SDS011;2975;50.956;6.962;2024-02-28T01:03:32;50.83;;;23.40;;
5898;SDS011;2975;50.956;6.962;2024-02-28T01:05:58;54.17;;;24.90;;
5898;SDS011;2975;50.956;6.962;2024-02-28T01:08:26;53.63;;;22.77;;
5898;SDS011;2975;50.956;6.962;2024-02-28T01:10:52;58.97;;;23.10;;
5898;SDS011;2975;50.956;6.962;2024-02-28T01:13:20;46.63;;;23.57;;
5898;SDS011;2975;50.956;6.962;2024-02-28T01:15:48;52.67;;;26.47;;
5898;SDS011;2975;50.956;6.962;2024-02-28T01:18:15;48.93;;;23.27;;
5898;SDS011;2975;50.956;6.962;2024-02-28T01:20:40;47.87;;;24.03;;
5898;SDS011;2975;50.956;6.962;2024-02-28T01:23:06;53.43;;;23.63;;
5898;SDS011;2975;50.956;6.962;2024-02-28T01:25:31;49.20;;;23.60;;
5898;SDS011;2975;50.956;6.962;2024-02-28T01:27:57;52.77;;;25.33;;
5898;SDS011;2975;50.956;6.962;2024-02-28T01:30:25;47.83;;;24.60;;
5898;SDS011;2975;50.956;6.962;2024-02-28T01:32:51;49.00;;;23.33;;
5898;SDS011;2975;50.956;6.962;2024-02-28T01:35:16;50.00;;;25.27;;
5898;SDS011;2975;50.956;6.962;2024-02-28T01:37:42;47.53;;;23.83;;
5898;SDS011;2975;50.956;6.962;2024-02-28T01:40:08;50.53;;;24.23;;
5898;SDS011;2975;50.956;6.962;2024-02-28T01:42:34;47.93;;;23.00;;
5898;SDS011;2975;50.956;6.962;2024-02-28T01:45:00;46.30;;;23.40;;
5898;SDS011;2975;50.956;6.962;2024-02-28T01:47:27;49.53;;;22.43;;
5898;SDS011;2975;50.956;6.962;2024-02-28T01:49:56;45.30;;;22.53;;
5898;SDS011;2975;50.956;6.962;2024-02-28T01:52:21;46.87;;;21.83;;
5898;SDS011;2975;50.956;6.962;2024-02-28T01:54:47;47.70;;;23.83;;
5898;SDS011;2975;50.956;6.962;2024-02-28T01:57:13;45.23;;;22.43;;
5898;SDS011;2975;50.956;6.962;2024-02-28T01:59:41;47.33;;;23.00;;
5898;SDS011;2975;50.956;6.962;2024-02-28T02:02:07;51.10;;;24.87;;
5898;SDS011;2975;50.956;6.962;2024-02-28T02:04:33;52.20;;;24.77;;
5898;SDS011;2975;50.956;6.962;2024-02-28T02:06:59;57.67;;;25.60;;
5898;SDS011;2975;50.956;6.962;2024-02-28T02:09:25;49.70;;;25.57;;
5898;SDS011;2975;50.956;6.962;2024-02-28T02:11:51;56.07;;;26.50;;
5898;SDS011;2975;50.956;6.962;2024-02-28T02:14:17;55.23;;;25.43;;
5898;SDS011;2975;50.956;6.962;2024-02-28T02:16:42;49.80;;;24.30;;
5898;SDS011;2975;50.956;6.962;2024-02-28T02:19:08;53.43;;;25.37;;
5898;SDS011;2975;50.956;6.962;2024-02-28T02:21:41;53.10;;;24.47;;
5898;SDS011;2975;50.956;6.962;2024-02-28T02:24:16;58.93;;;28.47;;
5898;SDS011;2975;50.956;6.962;2024-02-28T02:26:41;49.90;;;26.50;;
5898;SDS011;2975;50.956;6.962;2024-02-28T02:29:09;55.70;;;26.63;;
5898;SDS011;2975;50.956;6.962;2024-02-28T02:31:35;50.33;;;26.10;;
5898;SDS011;2975;50.956;6.962;2024-02-28T02:34:02;52.17;;;27.50;;
5898;SDS011;2975;50.956;6.962;2024-02-28T02:36:27;54.53;;;26.73;;
5898;SDS011;2975;50.956;6.962;2024-02-28T02:38:53;54.30;;;27.13;;
5898;SDS011;2975;50.956;6.962;2024-02-28T02:41:18;50.77;;;26.53;;
5898;SDS011;2975;50.956;6.962;2024-02-28T02:43:44;60.23;;;27.87;;
5898;SDS011;2975;50.956;6.962;2024-02-28T02:46:10;58.67;;;28.03;;
5898;SDS011;2975;50.956;6.962;2024-02-28T02:48:35;56.67;;;28.80;;
5898;SDS011;2975;50.956;6.962;2024-02-28T02:51:01;61.93;;;28.70;;
5898;SDS011;2975;50.956;6.962;2024-02-28T02:53:28;62.40;;;29.03;;
5898;SDS011;2975;50.956;6.962;2024-02-28T02:55:53;65.13;;;30.80;;
5898;SDS011;2975;50.956;6.962;2024-02-28T02:58:19;59.90;;;29.20;;
5898;SDS011;2975;50.956;6.962;2024-02-28T03:00:44;68.70;;;29.77;;
5898;SDS011;2975;50.956;6.962;2024-02-28T03:03:10;70.53;;;31.67;;
5898;SDS011;2975;50.956;6.962;2024-02-28T03:05:36;63.10;;;30.87;;
5898;SDS011;2975;50.956;6.962;2024-02-28T03:08:01;68.67;;;31.87;;
5898;SDS011;2975;50.956;6.962;2024-02-28T03:10:27;74.43;;;34.60;;
5898;SDS011;2975;50.956;6.962;2024-02-28T03:12:53;70.63;;;33.37;;
5898;SDS011;2975;50.956;6.962;2024-02-28T03:15:19;70.10;;;34.27;;
5898;SDS011;2975;50.956;6.962;2024-02-28T03:17:45;73.30;;;33.80;;
5898;SDS011;2975;50.956;6.962;2024-02-28T03:20:11;79.53;;;33.03;;
5898;SDS011;2975;50.956;6.962;2024-02-28T03:22:38;72.77;;;33.97;;
5898;SDS011;2975;50.956;6.962;2024-02-28T03:25:04;68.77;;;32.83;;
5898;SDS011;2975;50.956;6.962;2024-02-28T03:27:30;73.67;;;32.73;;
5898;SDS011;2975;50.956;6.962;2024-02-28T03:29:56;68.63;;;32.47;;
5898;SDS011;2975;50.956;6.962;2024-02-28T03:32:21;74.03;;;33.40;;
5898;SDS011;2975;50.956;6.962;2024-02-28T03:34:48;71.67;;;33.07;;
5898;SDS011;2975;50.956;6.962;2024-02-28T03:37:14;68.63;;;32.13;;
5898;SDS011;2975;50.956;6.962;2024-02-28T03:39:40;70.47;;;32.20;;
5898;SDS011;2975;50.956;6.962;2024-02-28T03:42:05;71.33;;;32.50;;
5898;SDS011;2975;50.956;6.962;2024-02-28T03:44:31;71.80;;;32.90;;
5898;SDS011;2975;50.956;6.962;2024-02-28T03:46:57;73.07;;;33.90;;
5898;SDS011;2975;50.956;6.962;2024-02-28T03:49:22;66.67;;;30.63;;
5898;SDS011;2975;50.956;6.962;2024-02-28T03:51:48;65.03;;;31.23;;
5898;SDS011;2975;50.956;6.962;2024-02-28T03:54:14;77.50;;;33.67;;
5898;SDS011;2975;50.956;6.962;2024-02-28T03:56:39;76.40;;;33.80;;
5898;SDS011;2975;50.956;6.962;2024-02-28T03:59:05;76.07;;;33.83;;
5898;SDS011;2975;50.956;6.962;2024-02-28T04:01:30;76.77;;;33.70;;
5898;SDS011;2975;50.956;6.962;2024-02-28T04:03:56;70.17;;;32.93;;
5898;SDS011;2975;50.956;6.962;2024-02-28T04:06:22;67.33;;;30.03;;
5898;SDS011;2975;50.956;6.962;2024-02-28T04:08:47;73.00;;;33.20;;
5898;SDS011;2975;50.956;6.962;2024-02-28T04:11:13;65.90;;;30.03;;
5898;SDS011;2975;50.956;6.962;2024-02-28T04:13:39;72.73;;;32.53;;
5898;SDS011;2975;50.956;6.962;2024-02-28T04:16:06;65.30;;;30.73;;
5898;SDS011;2975;50.956;6.962;2024-02-28T04:18:32;72.93;;;32.50;;
5898;SDS011;2975;50.956;6.962;2024-02-28T04:20:58;75.87;;;32.83;;
5898;SDS011;2975;50.956;6.962;2024-02-28T04:23:24;69.87;;;32.73;;
5898;SDS011;2975;50.956;6.962;2024-02-28T04:25:49;75.00;;;34.20;;
5898;SDS011;2975;50.956;6.962;2024-02-28T04:28:15;80.60;;;34.77;;
5898;SDS011;2975;50.956;6.962;2024-02-28T04:30:41;72.80;;;33.00;;
5898;SDS011;2975;50.956;6.962;2024-02-28T04:33:06;77.33;;;34.60;;
5898;SDS011;2975;50.956;6.962;2024-02-28T04:35:32;75.83;;;33.53;;
5898;SDS011;2975;50.956;6.962;2024-02-28T04:37:58;78.47;;;35.87;;
5898;SDS011;2975;50.956;6.962;2024-02-28T04:40:23;72.60;;;32.80;;
5898;SDS011;2975;50.956;6.962;2024-02-28T04:42:49;79.77;;;35.43;;
5898;SDS011;2975;50.956;6.962;2024-02-28T04:45:14;77.23;;;34.77;;
5898;SDS011;2975;50.956;6.962;2024-02-28T04:47:40;77.20;;;33.03;;
5898;SDS011;2975;50.956;6.962;2024-02-28T04:50:06;87.33;;;34.90;;
5898;SDS011;2975;50.956;6.962;2024-02-28T04:52:32;71.20;;;32.90;;
5898;SDS011;2975;50.956;6.962;2024-02-28T04:54:58;78.90;;;34.40;;
5898;SDS011;2975;50.956;6.962;2024-02-28T04:57:23;73.93;;;33.50;;
5898;SDS011;2975;50.956;6.962;2024-02-28T04:59:49;81.47;;;33.33;;
5898;SDS011;2975;50.956;6.962;2024-02-28T05:02:15;79.13;;;34.13;;
5898;SDS011;2975;50.956;6.962;2024-02-28T05:04:41;80.23;;;33.10;;
5898;SDS011;2975;50.956;6.962;2024-02-28T05:07:07;77.93;;;33.90;;
5898;SDS011;2975;50.956;6.962;2024-02-28T05:09:33;79.00;;;33.73;;
5898;SDS011;2975;50.956;6.962;2024-02-28T05:11:59;86.43;;;34.00;;
5898;SDS011;2975;50.956;6.962;2024-02-28T05:14:25;72.20;;;33.13;;
5898;SDS011;2975;50.956;6.962;2024-02-28T05:16:50;80.93;;;34.43;;
5898;SDS011;2975;50.956;6.962;2024-02-28T05:19:16;78.23;;;33.73;;
5898;SDS011;2975;50.956;6.962;2024-02-28T05:21:43;80.67;;;32.87;;
5898;SDS011;2975;50.956;6.962;2024-02-28T05:24:10;78.53;;;32.40;;
5898;SDS011;2975;50.956;6.962;2024-02-28T05:26:37;74.13;;;31.73;;
5898;SDS011;2975;50.956;6.962;2024-02-28T05:29:03;78.13;;;35.23;;
5898;SDS011;2975;50.956;6.962;2024-02-28T05:31:30;72.63;;;34.53;;
5898;SDS011;2975;50.956;6.962;2024-02-28T05:33:57;77.13;;;33.90;;
5898;SDS011;2975;50.956;6.962;2024-02-28T05:36:24;75.77;;;33.37;;
5898;SDS011;2975;50.956;6.962;2024-02-28T05:38:51;76.33;;;32.97;;
5898;SDS011;2975;50.956;6.962;2024-02-28T05:41:17;72.90;;;33.27;;
5898;SDS011;2975;50.956;6.962;2024-02-28T05:43:43;70.93;;;31.47;;
5898;SDS011;2975;50.956;6.962;2024-02-28T05:46:09;75.77;;;33.23;;
5898;SDS011;2975;50.956;6.962;2024-02-28T05:48:35;75.20;;;34.00;;
5898;SDS011;2975;50.956;6.962;2024-02-28T05:51:01;70.87;;;31.40;;
5898;SDS011;2975;50.956;6.962;2024-02-28T05:53:27;72.63;;;34.13;;
5898;SDS011;2975;50.956;6.962;2024-02-28T05:55:57;74.67;;;32.63;;
5898;SDS011;2975;50.956;6.962;2024-02-28T05:58:23;78.50;;;31.73;;
5898;SDS011;2975;50.956;6.962;2024-02-28T06:00:50;68.97;;;32.90;;
5898;SDS011;2975;50.956;6.962;2024-02-28T06:03:16;75.50;;;32.67;;
5898;SDS011;2975;50.956;6.962;2024-02-28T06:05:41;77.67;;;33.87;;
5898;SDS011;2975;50.956;6.962;2024-02-28T06:08:07;76.80;;;32.07;;
5898;SDS011;2975;50.956;6.962;2024-02-28T06:10:32;76.20;;;32.90;;
5898;SDS011;2975;50.956;6.962;2024-02-28T06:12:58;66.43;;;30.93;;
5898;SDS011;2975;50.956;6.962;2024-02-28T06:15:24;74.57;;;32.13;;
5898;SDS011;2975;50.956;6.962;2024-02-28T06:17:49;71.83;;;33.07;;
5898;SDS011;2975;50.956;6.962;2024-02-28T06:20:16;80.97;;;33.73;;
5898;SDS011;2975;50.956;6.962;2024-02-28T06:22:42;82.67;;;34.53;;
5898;SDS011;2975;50.956;6.962;2024-02-28T06:25:07;76.47;;;32.17;;
5898;SDS011;2975;50.956;6.962;2024-02-28T06:27:43;76.93;;;33.90;;
5898;SDS011;2975;50.956;6.962;2024-02-28T06:30:09;78.30;;;33.13;;
5898;SDS011;2975;50.956;6.962;2024-02-28T06:32:37;75.67;;;32.67;;
5898;SDS011;2975;50.956;6.962;2024-02-28T06:35:06;79.33;;;33.10;;
5898;SDS011;2975;50.956;6.962;2024-02-28T06:37:34;82.03;;;33.17;;
5898;SDS011;2975;50.956;6.962;2024-02-28T06:40:03;77.17;;;30.83;;
5898;SDS011;2975;50.956;6.962;2024-02-28T06:42:31;78.93;;;31.63;;
5898;SDS011;2975;50.956;6.962;2024-02-28T06:44:58;86.10;;;34.17;;
5898;SDS011;2975;50.956;6.962;2024-02-28T06:47:26;76.47;;;32.67;;
5898;SDS011;2975;50.956;6.962;2024-02-28T06:49:52;77.63;;;32.70;;
5898;SDS011;2975;50.956;6.962;2024-02-28T06:52:18;77.20;;;32.27;;
5898;SDS011;2975;50.956;6.962;2024-02-28T06:54:44;75.13;;;32.13;;
5898;SDS011;2975;50.956;6.962;2024-02-28T06:57:13;79.87;;;32.17;;
5898;SDS011;2975;50.956;6.962;2024-02-28T06:59:39;82.03;;;34.63;;
5898;SDS011;2975;50.956;6.962;2024-02-28T07:02:04;78.37;;;32.50;;
5898;SDS011;2975;50.956;6.962;2024-02-28T07:04:31;78.83;;;32.10;;
5898;SDS011;2975;50.956;6.962;2024-02-28T07:07:00;84.67;;;35.90;;
5898;SDS011;2975;50.956;6.962;2024-02-28T07:09:26;85.37;;;35.20;;
5898;SDS011;2975;50.956;6.962;2024-02-28T07:11:54;82.07;;;34.80;;
5898;SDS011;2975;50.956;6.962;2024-02-28T07:14:20;79.07;;;33.20;;
5898;SDS011;2975;50.956;6.962;2024-02-28T07:16:46;88.70;;;34.93;;
5898;SDS011;2975;50.956;6.962;2024-02-28T07:19:12;93.30;;;35.13;;
5898;SDS011;2975;50.956;6.962;2024-02-28T07:21:38;81.17;;;34.90;;
5898;SDS011;2975;50.956;6.962;2024-02-28T07:24:03;88.17;;;35.47;;
5898;SDS011;2975;50.956;6.962;2024-02-28T07:26:31;86.67;;;34.93;;
5898;SDS011;2975;50.956;6.962;2024-02-28T07:28:57;79.90;;;35.40;;
5898;SDS011;2975;50.956;6.962;2024-02-28T07:31:23;83.07;;;36.27;;
5898;SDS011;2975;50.956;6.962;2024-02-28T07:33:48;82.50;;;34.97;;
5898;SDS011;2975;50.956;6.962;2024-02-28T07:36:15;83.97;;;33.97;;
5898;SDS011;2975;50.956;6.962;2024-02-28T07:38:42;80.67;;;33.50;;
5898;SDS011;2975;50.956;6.962;2024-02-28T07:41:08;72.80;;;32.67;;
5898;SDS011;2975;50.956;6.962;2024-02-28T07:43:34;75.57;;;33.33;;
5898;SDS011;2975;50.956;6.962;2024-02-28T07:46:06;81.77;;;33.17;;
5898;SDS011;2975;50.956;6.962;2024-02-28T07:48:33;86.20;;;35.47;;
5898;SDS011;2975;50.956;6.962;2024-02-28T07:50:58;84.60;;;34.43;;
5898;SDS011;2975;50.956;6.962;2024-02-28T07:53:26;72.43;;;31.73;;
5898;SDS011;2975;50.956;6.962;2024-02-28T07:55:52;73.60;;;34.07;;
5898;SDS011;2975;50.956;6.962;2024-02-28T07:58:18;72.23;;;32.60;;
5898;SDS011;2975;50.956;6.962;2024-02-28T08:00:44;78.97;;;34.57;;
5898;SDS011;2975;50.956;6.962;2024-02-28T08:03:09;80.90;;;35.20;;
5898;SDS011;2975;50.956;6.962;2024-02-28T08:05:35;71.33;;;31.03;;
5898;SDS011;2975;50.956;6.962;2024-02-28T08:08:07;72.30;;;31.60;;
5898;SDS011;2975;50.956;6.962;2024-02-28T08:10:33;70.67;;;31.77;;
5898;SDS011;2975;50.956;6.962;2024-02-28T08:13:00;75.47;;;32.67;;
5898;SDS011;2975;50.956;6.962;2024-02-28T08:15:27;82.17;;;33.87;;
5898;SDS011;2975;50.956;6.962;2024-02-28T08:17:52;70.53;;;32.97;;
5898;SDS011;2975;50.956;6.962;2024-02-28T08:20:19;68.67;;;32.37;;
5898;SDS011;2975;50.956;6.962;2024-02-28T08:22:44;65.33;;;31.63;;
5898;SDS011;2975;50.956;6.962;2024-02-28T08:25:11;70.37;;;33.13;;
5898;SDS011;2975;50.956;6.962;2024-02-28T08:27:39;69.83;;;31.83;;
5898;SDS011;2975;50.956;6.962;2024-02-28T08:30:05;72.80;;;32.03;;
5898;SDS011;2975;50.956;6.962;2024-02-28T08:32:31;71.53;;;32.53;;
5898;SDS011;2975;50.956;6.962;2024-02-28T08:34:57;80.67;;;34.33;;
5898;SDS011;2975;50.956;6.962;2024-02-28T08:37:23;69.27;;;31.83;;
5898;SDS011;2975;50.956;6.962;2024-02-28T08:39:50;69.73;;;32.33;;
5898;SDS011;2975;50.956;6.962;2024-02-28T08:42:17;63.43;;;30.93;;
5898;SDS011;2975;50.956;6.962;2024-02-28T08:44:43;68.20;;;32.37;;
5898;SDS011;2975;50.956;6.962;2024-02-28T08:47:09;67.60;;;32.10;;
5898;SDS011;2975;50.956;6.962;2024-02-28T08:49:38;64.97;;;32.63;;
5898;SDS011;2975;50.956;6.962;2024-02-28T08:52:04;66.57;;;32.23;;
5898;SDS011;2975;50.956;6.962;2024-02-28T08:54:30;66.50;;;33.30;;
5898;SDS011;2975;50.956;6.962;2024-02-28T08:56:55;65.47;;;33.17;;
5898;SDS011;2975;50.956;6.962;2024-02-28T08:59:21;60.77;;;30.33;;
5898;SDS011;2975;50.956;6.962;2024-02-28T09:01:47;61.60;;;30.37;;
5898;SDS011;2975;50.956;6.962;2024-02-28T09:04:13;61.00;;;30.93;;
5898;SDS011;2975;50.956;6.962;2024-02-28T09:06:39;60.63;;;30.13;;
5898;SDS011;2975;50.956;6.962;2024-02-28T09:09:05;67.17;;;33.37;;
5898;SDS011;2975;50.956;6.962;2024-02-28T09:11:30;57.70;;;30.00;;
5898;SDS011;2975;50.956;6.962;2024-02-28T09:13:56;57.00;;;29.63;;
5898;SDS011;2975;50.956;6.962;2024-02-28T09:16:23;52.10;;;27.63;;
5898;SDS011;2975;50.956;6.962;2024-02-28T09:18:49;57.80;;;28.50;;
5898;SDS011;2975;50.956;6.962;2024-02-28T09:21:14;55.37;;;27.50;;
5898;SDS011;2975;50.956;6.962;2024-02-28T09:23:40;56.27;;;27.90;;
5898;SDS011;2975;50.956;6.962;2024-02-28T09:26:06;48.43;;;26.03;;
5898;SDS011;2975;50.956;6.962;2024-02-28T09:28:32;52.53;;;27.70;;
5898;SDS011;2975;50.956;6.962;2024-02-28T09:30:58;47.83;;;26.13;;
5898;SDS011;2975;50.956;6.962;2024-02-28T09:33:24;56.70;;;29.07;;
5898;SDS011;2975;50.956;6.962;2024-02-28T09:35:49;59.03;;;27.73;;
5898;SDS011;2975;50.956;6.962;2024-02-28T09:38:15;54.53;;;27.47;;
5898;SDS011;2975;50.956;6.962;2024-02-28T09:40:41;57.20;;;28.20;;
5898;SDS011;2975;50.956;6.962;2024-02-28T09:43:30;51.27;;;27.50;;
5898;SDS011;2975;50.956;6.962;2024-02-28T09:46:03;51.73;;;26.80;;
5898;SDS011;2975;50.956;6.962;2024-02-28T09:48:31;54.13;;;27.57;;
5898;SDS011;2975;50.956;6.962;2024-02-28T09:50:57;49.90;;;26.70;;
5898;SDS011;2975;50.956;6.962;2024-02-28T09:53:23;53.23;;;27.23;;
5898;SDS011;2975;50.956;6.962;2024-02-28T09:55:51;53.27;;;28.07;;
5898;SDS011;2975;50.956;6.962;2024-02-28T09:58:18;52.83;;;27.23;;
5898;SDS011;2975;50.956;6.962;2024-02-28T10:00:47;51.00;;;28.03;;
5898;SDS011;2975;50.956;6.962;2024-02-28T10:03:15;49.53;;;26.63;;
5898;SDS011;2975;50.956;6.962;2024-02-28T10:05:46;48.53;;;26.67;;
5898;SDS011;2975;50.956;6.962;2024-02-28T10:08:14;52.57;;;28.10;;
5898;SDS011;2975;50.956;6.962;2024-02-28T10:10:47;49.20;;;27.17;;
5898;SDS011;2975;50.956;6.962;2024-02-28T10:13:17;48.47;;;26.50;;
5898;SDS011;2975;50.956;6.962;2024-02-28T10:15:43;54.07;;;26.97;;
5898;SDS011;2975;50.956;6.962;2024-02-28T10:18:10;56.07;;;26.87;;
5898;SDS011;2975;50.956;6.962;2024-02-28T10:20:37;49.23;;;25.67;;
5898;SDS011;2975;50.956;6.962;2024-02-28T10:23:07;52.37;;;26.67;;
5898;SDS011;2975;50.956;6.962;2024-02-28T10:25:44;51.87;;;26.90;;
5898;SDS011;2975;50.956;6.962;2024-02-28T10:28:11;50.53;;;27.00;;
5898;SDS011;2975;50.956;6.962;2024-02-28T10:30:42;55.37;;;26.90;;
5898;SDS011;2975;50.956;6.962;2024-02-28T10:33:14;52.20;;;28.07;;
5898;SDS011;2975;50.956;6.962;2024-02-28T10:35:41;52.80;;;27.13;;
5898;SDS011;2975;50.956;6.962;2024-02-28T10:38:11;53.73;;;27.00;;
5898;SDS011;2975;50.956;6.962;2024-02-28T10:40:42;53.07;;;27.50;;
5898;SDS011;2975;50.956;6.962;2024-02-28T10:43:09;51.00;;;26.23;;
5898;SDS011;2975;50.956;6.962;2024-02-28T10:45:36;53.00;;;27.27;;
5898;SDS011;2975;50.956;6.962;2024-02-28T10:48:05;49.90;;;27.40;;
5898;SDS011;2975;50.956;6.962;2024-02-28T10:50:31;50.53;;;26.30;;
5898;SDS011;2975;50.956;6.962;2024-02-28T10:52:59;50.87;;;28.37;;
5898;SDS011;2975;50.956;6.962;2024-02-28T10:55:35;54.57;;;27.73;;
5898;SDS011;2975;50.956;6.962;2024-02-28T10:58:09;48.30;;;26.07;;
5898;SDS011;2975;50.956;6.962;2024-02-28T11:00:39;51.53;;;25.67;;
5898;SDS011;2975;50.956;6.962;2024-02-28T11:03:12;47.03;;;24.53;;
5898;SDS011;2975;50.956;6.962;2024-02-28T11:05:42;52.03;;;26.90;;
5898;SDS011;2975;50.956;6.962;2024-02-28T11:08:11;52.10;;;26.20;;
5898;SDS011;2975;50.956;6.962;2024-02-28T11:10:46;49.33;;;26.43;;
5898;SDS011;2975;50.956;6.962;2024-02-28T11:13:33;47.50;;;25.70;;
5898;SDS011;2975;50.956;6.962;2024-02-28T11:16:09;46.90;;;25.10;;
5898;SDS011;2975;50.956;6.962;2024-02-28T11:18:36;48.97;;;26.37;;
5898;SDS011;2975;50.956;6.962;2024-02-28T11:21:16;51.00;;;24.77;;
5898;SDS011;2975;50.956;6.962;2024-02-28T11:23:46;52.40;;;27.73;;
5898;SDS011;2975;50.956;6.962;2024-02-28T11:26:13;53.87;;;27.03;;
5898;SDS011;2975;50.956;6.962;2024-02-28T11:28:39;51.60;;;26.20;;
5898;SDS011;2975;50.956;6.962;2024-02-28T11:31:06;45.73;;;25.53;;
5898;SDS011;2975;50.956;6.962;2024-02-28T11:33:31;47.13;;;24.23;;
5898;SDS011;2975;50.956;6.962;2024-02-28T11:36:00;42.23;;;23.53;;
5898;SDS011;2975;50.956;6.962;2024-02-28T11:38:28;49.13;;;25.57;;
5898;SDS011;2975;50.956;6.962;2024-02-28T11:40:54;46.73;;;25.23;;
5898;SDS011;2975;50.956;6.962;2024-02-28T11:43:20;43.37;;;24.10;;
5898;SDS011;2975;50.956;6.962;2024-02-28T11:45:46;48.23;;;24.97;;
5898;SDS011;2975;50.956;6.962;2024-02-28T11:48:13;45.67;;;24.20;;
5898;SDS011;2975;50.956;6.962;2024-02-28T11:50:39;44.37;;;22.70;;
5898;SDS011;2975;50.956;6.962;2024-02-28T11:53:09;48.87;;;25.50;;
5898;SDS011;2975;50.956;6.962;2024-02-28T11:55:35;41.50;;;22.30;;
5898;SDS011;2975;50.956;6.962;2024-02-28T11:58:09;50.27;;;23.70;;
5898;SDS011;2975;50.956;6.962;2024-02-28T12:00:48;43.53;;;24.13;;
5898;SDS011;2975;50.956;6.962;2024-02-28T12:03:24;42.70;;;23.23;;
5898;SDS011;2975;50.956;6.962;2024-02-28T12:05:52;43.13;;;24.13;;
5898;SDS011;2975;50.956;6.962;2024-02-28T12:08:18;45.47;;;24.03;;
5898;SDS011;2975;50.956;6.962;2024-02-28T12:10:48;39.27;;;23.70;;
5898;SDS011;2975;50.956;6.962;2024-02-28T12:13:17;40.47;;;22.23;;
5898;SDS011;2975;50.956;6.962;2024-02-28T12:15:43;39.90;;;22.43;;
5898;SDS011;2975;50.956;6.962;2024-02-28T12:18:09;42.37;;;21.87;;
5898;SDS011;2975;50.956;6.962;2024-02-28T12:20:35;40.43;;;22.10;;
5898;SDS011;2975;50.956;6.962;2024-02-28T12:23:04;39.67;;;23.10;;
5898;SDS011;2975;50.956;6.962;2024-02-28T12:25:30;39.23;;;19.90;;
5898;SDS011;2975;50.956;6.962;2024-02-28T12:27:57;37.83;;;21.63;;
5898;SDS011;2975;50.956;6.962;2024-02-28T12:30:22;42.60;;;22.47;;
5898;SDS011;2975;50.956;6.962;2024-02-28T12:32:48;40.53;;;23.03;;
5898;SDS011;2975;50.956;6.962;2024-02-28T12:35:13;39.50;;;21.23;;
5898;SDS011;2975;50.956;6.962;2024-02-28T12:37:39;37.87;;;19.70;;
5898;SDS011;2975;50.956;6.962;2024-02-28T12:40:05;38.30;;;21.13;;
5898;SDS011;2975;50.956;6.962;2024-02-28T12:42:34;34.27;;;20.10;;
5898;SDS011;2975;50.956;6.962;2024-02-28T12:45:03;34.83;;;19.30;;
5898;SDS011;2975;50.956;6.962;2024-02-28T12:47:28;37.50;;;19.97;;
5898;SDS011;2975;50.956;6.962;2024-02-28T12:49:56;37.67;;;20.20;;
5898;SDS011;2975;50.956;6.962;2024-02-28T12:52:22;34.30;;;19.20;;
5898;SDS011;2975;50.956;6.962;2024-02-28T12:54:49;33.43;;;19.20;;
5898;SDS011;2975;50.956;6.962;2024-02-28T12:57:15;35.87;;;18.97;;
5898;SDS011;2975;50.956;6.962;2024-02-28T12:59:41;35.60;;;19.07;;
5898;SDS011;2975;50.956;6.962;2024-02-28T13:02:07;32.00;;;17.93;;
5898;SDS011;2975;50.956;6.962;2024-02-28T13:04:34;32.20;;;18.17;;
5898;SDS011;2975;50.956;6.962;2024-02-28T13:07:00;32.80;;;18.90;;
5898;SDS011;2975;50.956;6.962;2024-02-28T13:09:25;32.50;;;18.80;;
5898;SDS011;2975;50.956;6.962;2024-02-28T13:11:51;29.93;;;17.50;;
5898;SDS011;2975;50.956;6.962;2024-02-28T13:14:17;32.57;;;18.30;;
5898;SDS011;2975;50.956;6.962;2024-02-28T13:16:43;33.27;;;17.83;;
5898;SDS011;2975;50.956;6.962;2024-02-28T13:19:09;33.70;;;18.23;;
5898;SDS011;2975;50.956;6.962;2024-02-28T13:21:35;33.00;;;17.33;;
5898;SDS011;2975;50.956;6.962;2024-02-28T13:24:02;31.10;;;17.83;;
5898;SDS011;2975;50.956;6.962;2024-02-28T13:26:28;30.60;;;18.17;;
5898;SDS011;2975;50.956;6.962;2024-02-28T13:28:54;34.33;;;18.97;;
5898;SDS011;2975;50.956;6.962;2024-02-28T13:31:20;32.23;;;18.37;;
5898;SDS011;2975;50.956;6.962;2024-02-28T13:33:46;29.73;;;16.73;;
5898;SDS011;2975;50.956;6.962;2024-02-28T13:36:13;32.03;;;17.77;;
5898;SDS011;2975;50.956;6.962;2024-02-28T13:38:43;28.90;;;17.37;;
5898;SDS011;2975;50.956;6.962;2024-02-28T13:41:09;31.10;;;16.07;;
5898;SDS011;2975;50.956;6.962;2024-02-28T13:43:35;34.40;;;17.60;;
5898;SDS011;2975;50.956;6.962;2024-02-28T13:46:00;30.50;;;16.50;;
5898;SDS011;2975;50.956;6.962;2024-02-28T13:48:26;29.77;;;16.77;;
5898;SDS011;2975;50.956;6.962;2024-02-28T13:50:59;30.40;;;16.27;;
5898;SDS011;2975;50.956;6.962;2024-02-28T13:53:25;30.80;;;16.87;;
5898;SDS011;2975;50.956;6.962;2024-02-28T13:55:50;26.40;;;15.00;;
5898;SDS011;2975;50.956;6.962;2024-02-28T13:58:17;30.63;;;17.20;;
5898;SDS011;2975;50.956;6.962;2024-02-28T14:00:43;24.53;;;15.47;;
5898;SDS011;2975;50.956;6.962;2024-02-28T14:03:12;31.27;;;15.80;;
5898;SDS011;2975;50.956;6.962;2024-02-28T14:05:38;28.50;;;16.83;;
5898;SDS011;2975;50.956;6.962;2024-02-28T14:08:04;30.00;;;16.47;;
5898;SDS011;2975;50.956;6.962;2024-02-28T14:10:36;27.57;;;15.83;;
5898;SDS011;2975;50.956;6.962;2024-02-28T14:13:02;23.23;;;15.40;;
5898;SDS011;2975;50.956;6.962;2024-02-28T14:15:28;26.73;;;14.73;;
5898;SDS011;2975;50.956;6.962;2024-02-28T14:17:54;23.60;;;13.80;;
5898;SDS011;2975;50.956;6.962;2024-02-28T14:20:20;25.80;;;14.63;;
5898;SDS011;2975;50.956;6.962;2024-02-28T14:22:45;25.20;;;13.87;;
5898;SDS011;2975;50.956;6.962;2024-02-28T14:25:11;26.47;;;14.47;;
5898;SDS011;2975;50.956;6.962;2024-02-28T14:27:38;26.77;;;14.87;;
5898;SDS011;2975;50.956;6.962;2024-02-28T14:30:05;26.40;;;14.63;;
5898;SDS011;2975;50.956;6.962;2024-02-28T14:32:34;23.83;;;15.00;;
5898;SDS011;2975;50.956;6.962;2024-02-28T14:35:01;24.80;;;13.63;;
5898;SDS011;2975;50.956;6.962;2024-02-28T14:37:31;27.77;;;14.20;;
5898;SDS011;2975;50.956;6.962;2024-02-28T14:39:58;26.67;;;14.77;;
5898;SDS011;2975;50.956;6.962;2024-02-28T14:42:26;20.20;;;12.43;;
5898;SDS011;2975;50.956;6.962;2024-02-28T14:44:51;22.07;;;13.17;;
5898;SDS011;2975;50.956;6.962;2024-02-28T14:47:18;20.50;;;12.00;;
5898;SDS011;2975;50.956;6.962;2024-02-28T14:49:45;19.87;;;12.17;;
5898;SDS011;2975;50.956;6.962;2024-02-28T14:52:12;24.53;;;12.60;;
5898;SDS011;2975;50.956;6.962;2024-02-28T14:54:38;24.93;;;12.90;;
5898;SDS011;2975;50.956;6.962;2024-02-28T14:57:05;21.30;;;12.37;;
5898;SDS011;2975;50.956;6.962;2024-02-28T14:59:31;20.93;;;12.20;;
5898;SDS011;2975;50.956;6.962;2024-02-28T15:01:58;19.13;;;12.37;;
5898;SDS011;2975;50.956;6.962;2024-02-28T15:04:25;21.93;;;13.10;;
5898;SDS011;2975;50.956;6.962;2024-02-28T15:06:52;25.83;;;13.87;;
5898;SDS011;2975;50.956;6.962;2024-02-28T15:09:18;19.10;;;11.53;;
5898;SDS011;2975;50.956;6.962;2024-02-28T15:11:46;20.80;;;12.70;;
5898;SDS011;2975;50.956;6.962;2024-02-28T15:14:12;22.70;;;13.27;;
5898;SDS011;2975;50.956;6.962;2024-02-28T15:16:39;20.27;;;11.77;;